Time;durP1;ratioP1;P1;durP2;ratioP2;P2;SDS_P1;SDS_P2;PMS_P1;PMS_P2;Temp;Humidity;BMP_temperature;BMP_pressure;BME280_temperature;BME280_humidity;BME280_pressure;Samples;Min_cycle;Max_cycle;Signal;HPM_P1;HPM_P2
2022/02/26 00:02:21;;;;;;;5.63;2.00;;;;;;;;;;5011598;28;20030;-76
2022/02/26 00:04:48;;;;;;;6.72;2.58;;;;;;;;;;5011434;28;20038;-76
2022/02/26 00:07:14;;;;;;;3.30;3.00;;;;;;;;;;5014801;28;20079;-76
2022/02/26 00:09:40;;;;;;;4.60;2.08;;;;;;;;;;5017141;28;20044;-75
2022/02/26 00:12:06;;;;;;;5.18;2.03;;;;;;;;;;5014807;28;20050;-75
2022/02/26 00:14:32;;;;;;;3.88;2.10;;;;;;;;;;5015617;28;20033;-75
2022/02/26 00:16:58;;;;;;;4.03;2.22;;;;;;;;;;5015428;28;20022;-75
2022/02/26 00:19:24;;;;;;;5.30;2.10;;;;;;;;;;5015392;28;20063;-74
2022/02/26 00:21:51;;;;;;;5.30;2.10;;;;;;;;;;5014797;28;20116;-77
2022/02/26 00:24:17;;;;;;;5.45;2.05;;;;;;;;;;5014438;28;20037;-75
2022/02/26 00:26:43;;;;;;;6.15;2.10;;;;;;;;;;5012837;28;20068;-76
2022/02/26 00:29:10;;;;;;;4.28;2.10;;;;;;;;;;5011706;28;20488;-76
2022/02/26 00:31:36;;;;;;;3.47;2.17;;;;;;;;;;5010609;28;20146;-75
2022/02/26 00:34:02;;;;;;;8.95;2.20;;;;;;;;;;5009812;28;20408;-76
2022/02/26 00:36:28;;;;;;;5.15;2.10;;;;;;;;;;5014033;28;20026;-76
2022/02/26 00:38:55;;;;;;;6.10;2.33;;;;;;;;;;5017211;28;20033;-75
2022/02/26 00:41:21;;;;;;;4.03;2.20;;;;;;;;;;5014121;28;20022;-74
2022/02/26 00:43:47;;;;;;;6.93;2.30;;;;;;;;;;5008556;28;20029;-74
2022/02/26 00:46:13;;;;;;;3.13;2.10;;;;;;;;;;5010102;28;20552;-77
2022/02/26 00:51:24;;;;;;;4.32;2.85;;;;;;;;;;5015460;28;20176;-76
2022/02/26 00:53:50;;;;;;;6.95;2.30;;;;;;;;;;5016370;28;20057;-77
2022/02/26 00:56:16;;;;;;;4.30;1.92;;;;;;;;;;5009917;28;20469;-76
2022/02/26 00:58:42;;;;;;;5.28;1.90;;;;;;;;;;5009615;28;20026;-76
2022/02/26 01:01:09;;;;;;;5.10;2.55;;;;;;;;;;5009493;28;20125;-75
2022/02/26 01:03:35;;;;;;;5.28;2.30;;;;;;;;;;5010619;28;20058;-76
2022/02/26 01:06:01;;;;;;;6.05;2.80;;;;;;;;;;5009878;28;20030;-76
2022/02/26 01:08:27;;;;;;;4.30;2.30;;;;;;;;;;5011518;28;20041;-75
2022/02/26 01:10:53;;;;;;;7.18;3.03;;;;;;;;;;5008468;28;20105;-76
2022/02/26 01:13:19;;;;;;;4.78;2.13;;;;;;;;;;5011990;28;20479;-75
2022/02/26 01:15:45;;;;;;;3.97;2.38;;;;;;;;;;5011197;28;20028;-75
2022/02/26 01:18:11;;;;;;;6.22;2.58;;;;;;;;;;5010710;28;20026;-74
2022/02/26 01:20:37;;;;;;;5.43;2.22;;;;;;;;;;5009942;28;20022;-75
2022/02/26 01:23:04;;;;;;;4.68;2.30;;;;;;;;;;5011172;28;20484;-75
2022/02/26 01:25:30;;;;;;;5.85;2.25;;;;;;;;;;5011744;28;20053;-76
2022/02/26 01:27:56;;;;;;;5.35;2.00;;;;;;;;;;5010683;28;20532;-75
2022/02/26 01:30:22;;;;;;;4.25;2.25;;;;;;;;;;5011368;28;20022;-74
2022/02/26 01:32:48;;;;;;;5.90;2.72;;;;;;;;;;5010516;28;20017;-75
2022/02/26 01:35:14;;;;;;;5.82;2.50;;;;;;;;;;5012703;28;20603;-75
2022/02/26 01:37:40;;;;;;;7.05;2.65;;;;;;;;;;5011108;28;20041;-75
2022/02/26 01:40:06;;;;;;;6.63;2.35;;;;;;;;;;5011406;28;20104;-76
2022/02/26 01:42:33;;;;;;;5.40;2.33;;;;;;;;;;5008332;28;20022;-75
2022/02/26 01:44:59;;;;;;;6.65;2.95;;;;;;;;;;5012222;28;20026;-77
2022/02/26 01:47:25;;;;;;;3.88;1.90;;;;;;;;;;5008963;28;20030;-75
2022/02/26 01:49:51;;;;;;;5.35;2.30;;;;;;;;;;5012146;28;20038;-75
2022/02/26 01:52:18;;;;;;;6.13;2.10;;;;;;;;;;5009754;28;20050;-75
2022/02/26 01:54:47;;;;;;;5.72;2.00;;;;;;;;;;5011159;28;20058;-75
2022/02/26 01:57:13;;;;;;;2.97;2.00;;;;;;;;;;5012126;28;20034;-76
2022/02/26 01:59:39;;;;;;;2.67;1.45;;;;;;;;;;5018292;28;20038;-74
2022/02/26 02:02:06;;;;;;;3.90;1.80;;;;;;;;;;5014721;28;20053;-75
2022/02/26 02:04:32;;;;;;;3.95;1.88;;;;;;;;;;5013999;28;20030;-76
2022/02/26 02:06:58;;;;;;;5.15;2.45;;;;;;;;;;5009414;28;20377;-75
2022/02/26 02:09:25;;;;;;;9.57;1.98;;;;;;;;;;5013151;28;20056;-75
2022/02/26 02:11:51;;;;;;;3.33;1.65;;;;;;;;;;5012103;28;20046;-75
2022/02/26 02:14:17;;;;;;;10.00;3.03;;;;;;;;;;5015207;28;20388;-75
2022/02/26 02:16:43;;;;;;;5.97;2.90;;;;;;;;;;5010885;28;20480;-74
2022/02/26 02:19:10;;;;;;;5.82;2.20;;;;;;;;;;5014062;28;20022;-75
2022/02/26 02:21:37;;;;;;;3.95;1.80;;;;;;;;;;5012131;28;20029;-75
2022/02/26 02:24:03;;;;;;;4.45;2.45;;;;;;;;;;5008077;28;20142;-74
2022/02/26 02:26:30;;;;;;;2.95;1.73;;;;;;;;;;5011826;28;20155;-75
2022/02/26 02:28:57;;;;;;;2.38;1.65;;;;;;;;;;5014374;28;20041;-75
2022/02/26 02:31:23;;;;;;;5.68;1.98;;;;;;;;;;5011945;28;20022;-75
2022/02/26 02:33:49;;;;;;;5.05;1.75;;;;;;;;;;5013083;28;20034;-77
2022/02/26 02:36:15;;;;;;;3.47;1.88;;;;;;;;;;5009436;28;20026;-75
2022/02/26 02:38:41;;;;;;;4.20;1.73;;;;;;;;;;5013212;28;20041;-74
2022/02/26 02:41:08;;;;;;;8.82;2.00;;;;;;;;;;5010589;28;20037;-75
2022/02/26 02:43:34;;;;;;;4.10;2.58;;;;;;;;;;5008598;28;20039;-75
2022/02/26 02:46:00;;;;;;;5.20;1.60;;;;;;;;;;5013163;28;20033;-75
2022/02/26 02:48:27;;;;;;;3.40;1.98;;;;;;;;;;5012782;28;20496;-75
2022/02/26 02:50:53;;;;;;;2.92;2.28;;;;;;;;;;5011601;28;20084;-74
2022/02/26 02:53:19;;;;;;;5.47;2.15;;;;;;;;;;5013491;28;20396;-75
2022/02/26 02:55:49;;;;;;;4.43;1.88;;;;;;;;;;5014404;28;20105;-75
2022/02/26 02:58:41;;;;;;;4.10;1.80;;;;;;;;;;5012394;28;20419;-75
2022/02/26 03:01:07;;;;;;;4.65;1.88;;;;;;;;;;5003833;28;20034;-73
2022/02/26 03:03:34;;;;;;;3.42;1.85;;;;;;;;;;5007812;28;20105;-74
2022/02/26 03:06:00;;;;;;;4.82;2.55;;;;;;;;;;5009651;28;20369;-75
2022/02/26 03:08:26;;;;;;;4.57;1.73;;;;;;;;;;5011501;28;20021;-74
2022/02/26 03:10:53;;;;;;;2.60;1.88;;;;;;;;;;5012307;28;20068;-75
2022/02/26 03:13:20;;;;;;;4.82;2.00;;;;;;;;;;5011561;28;20113;-73
2022/02/26 03:15:46;;;;;;;4.82;1.83;;;;;;;;;;5012767;28;20033;-75
2022/02/26 03:18:12;;;;;;;6.50;2.45;;;;;;;;;;5011421;28;20025;-74
2022/02/26 03:20:39;;;;;;;3.05;1.55;;;;;;;;;;5011209;28;20494;-75
2022/02/26 03:23:05;;;;;;;2.97;1.60;;;;;;;;;;5026496;28;20125;-75
2022/02/26 03:25:31;;;;;;;2.20;1.80;;;;;;;;;;5011044;28;20026;-74
2022/02/26 03:27:57;;;;;;;3.42;1.73;;;;;;;;;;5008995;28;20431;-74
2022/02/26 03:30:23;;;;;;;6.15;2.92;;;;;;;;;;5011636;28;20416;-75
2022/02/26 03:32:50;;;;;;;4.30;2.22;;;;;;;;;;5012272;28;20148;-74
2022/02/26 03:35:17;;;;;;;4.55;1.70;;;;;;;;;;5011309;28;20530;-75
2022/02/26 03:37:44;;;;;;;2.70;1.63;;;;;;;;;;5012671;28;20049;-75
2022/02/26 03:40:11;;;;;;;6.57;2.13;;;;;;;;;;5012310;28;20025;-76
2022/02/26 03:42:38;;;;;;;3.00;1.75;;;;;;;;;;5012223;28;20069;-75
2022/02/26 03:45:04;;;;;;;7.20;2.10;;;;;;;;;;5013358;28;20049;-75
2022/02/26 03:47:30;;;;;;;1.70;1.60;;;;;;;;;;5012135;28;20369;-74
2022/02/26 03:49:56;;;;;;;5.25;1.70;;;;;;;;;;5009609;28;20059;-74
2022/02/26 03:52:25;;;;;;;5.10;1.67;;;;;;;;;;5013601;28;20029;-76
2022/02/26 03:54:52;;;;;;;3.58;1.67;;;;;;;;;;5011443;28;20425;-76
2022/02/26 03:57:18;;;;;;;3.83;1.67;;;;;;;;;;5011071;28;20024;-73
2022/02/26 03:59:44;;;;;;;3.47;1.80;;;;;;;;;;5011382;28;20373;-75
2022/02/26 04:02:10;;;;;;;4.68;1.67;;;;;;;;;;5012211;28;20033;-74
2022/02/26 04:04:37;;;;;;;4.80;1.60;;;;;;;;;;5012102;28;20026;-75
2022/02/26 04:07:03;;;;;;;2.42;1.80;;;;;;;;;;5011438;28;20033;-76
2022/02/26 04:09:29;;;;;;;2.08;1.65;;;;;;;;;;5012299;28;20029;-74
2022/02/26 04:11:55;;;;;;;4.18;1.60;;;;;;;;;;5014480;28;20141;-75
2022/02/26 04:14:21;;;;;;;2.60;1.48;;;;;;;;;;5016348;28;20037;-75
2022/02/26 04:16:48;;;;;;;3.10;1.52;;;;;;;;;;5011954;28;20049;-75
2022/02/26 04:19:14;;;;;;;5.65;2.58;;;;;;;;;;5019551;28;20097;-76
2022/02/26 04:21:40;;;;;;;6.10;1.92;;;;;;;;;;5012156;28;20041;-75
2022/02/26 04:24:06;;;;;;;1.98;1.48;;;;;;;;;;5014068;28;20017;-75
2022/02/26 04:26:32;;;;;;;2.90;1.48;;;;;;;;;;5008584;28;20249;-75
2022/02/26 04:28:58;;;;;;;1.30;1.20;;;;;;;;;;5009894;28;20033;-76
2022/02/26 04:31:25;;;;;;;8.35;1.65;;;;;;;;;;5009753;28;20030;-75
2022/02/26 04:33:51;;;;;;;5.45;1.58;;;;;;;;;;5012395;28;20030;-74
2022/02/26 04:36:17;;;;;;;2.72;1.67;;;;;;;;;;5008248;28;20026;-74
2022/02/26 04:38:43;;;;;;;4.32;1.83;;;;;;;;;;5012082;28;20064;-75
2022/02/26 04:41:10;;;;;;;4.15;1.77;;;;;;;;;;5009897;28;20092;-75
2022/02/26 04:43:38;;;;;;;4.93;1.70;;;;;;;;;;5017347;28;20030;-75
2022/02/26 04:46:04;;;;;;;5.32;1.90;;;;;;;;;;5023000;28;20479;-75
2022/02/26 04:48:31;;;;;;;3.67;1.63;;;;;;;;;;5009373;28;20030;-76
2022/02/26 04:50:57;;;;;;;3.38;1.70;;;;;;;;;;5011999;28;20517;-74
2022/02/26 04:53:23;;;;;;;8.50;2.10;;;;;;;;;;5016663;28;20535;-75
2022/02/26 04:55:50;;;;;;;3.97;1.83;;;;;;;;;;5012074;28;20037;-75
2022/02/26 04:58:16;;;;;;;5.25;2.33;;;;;;;;;;5018877;28;20032;-74
2022/02/26 05:00:42;;;;;;;5.05;2.50;;;;;;;;;;5014881;28;20056;-74
2022/02/26 05:03:09;;;;;;;5.47;2.30;;;;;;;;;;5012317;28;20057;-74
2022/02/26 05:05:35;;;;;;;2.75;1.90;;;;;;;;;;5013783;28;20033;-74
2022/02/26 05:08:02;;;;;;;5.20;2.28;;;;;;;;;;5010873;28;20531;-75
2022/02/26 05:10:30;;;;;;;5.63;1.65;;;;;;;;;;5011143;28;20072;-75
2022/02/26 05:12:56;;;;;;;4.35;1.60;;;;;;;;;;5010189;28;20046;-73
2022/02/26 05:15:22;;;;;;;3.47;1.60;;;;;;;;;;5015000;28;20029;-75
2022/02/26 05:17:48;;;;;;;7.00;1.83;;;;;;;;;;5010922;28;20069;-76
2022/02/26 05:20:15;;;;;;;3.20;1.50;;;;;;;;;;5010705;28;20030;-75
2022/02/26 05:22:42;;;;;;;4.32;1.85;;;;;;;;;;5010360;28;20028;-75
2022/02/26 05:25:10;;;;;;;4.75;1.60;;;;;;;;;;5010123;28;20040;-75
2022/02/26 05:27:36;;;;;;;2.55;2.08;;;;;;;;;;5011414;28;20018;-74
2022/02/26 05:30:03;;;;;;;5.93;1.60;;;;;;;;;;5010178;28;20034;-75
2022/02/26 05:32:29;;;;;;;2.38;1.70;;;;;;;;;;5012562;28;20034;-75
2022/02/26 05:34:56;;;;;;;3.08;1.60;;;;;;;;;;5013247;28;20089;-75
2022/02/26 05:37:22;;;;;;;4.70;1.90;;;;;;;;;;5014361;28;20025;-75
2022/02/26 05:39:48;;;;;;;2.85;1.70;;;;;;;;;;5014872;28;20026;-75
2022/02/26 05:42:15;;;;;;;3.65;2.00;;;;;;;;;;5011423;28;20022;-74
2022/02/26 05:44:41;;;;;;;3.45;1.90;;;;;;;;;;5013485;28;20037;-75
2022/02/26 05:47:08;;;;;;;3.40;1.77;;;;;;;;;;5014300;28;20044;-75
2022/02/26 05:49:34;;;;;;;2.25;2.03;;;;;;;;;;5014142;28;20032;-75
2022/02/26 05:52:00;;;;;;;3.10;2.03;;;;;;;;;;5012487;28;20033;-75
2022/02/26 05:54:26;;;;;;;4.65;1.83;;;;;;;;;;5012866;28;20112;-74
2022/02/26 05:56:52;;;;;;;10.88;2.45;;;;;;;;;;5013935;28;20041;-75
2022/02/26 05:59:18;;;;;;;4.88;1.70;;;;;;;;;;5013996;28;20034;-75
2022/02/26 06:01:44;;;;;;;5.28;2.00;;;;;;;;;;5013740;28;20049;-75
2022/02/26 06:04:10;;;;;;;6.65;2.17;;;;;;;;;;5013802;28;20037;-75
2022/02/26 06:06:36;;;;;;;6.53;1.70;;;;;;;;;;5012826;28;20029;-74
2022/02/26 06:09:03;;;;;;;4.00;1.80;;;;;;;;;;5025896;28;20092;-74
2022/02/26 06:11:29;;;;;;;2.58;1.50;;;;;;;;;;5016289;28;20046;-74
2022/02/26 06:13:55;;;;;;;5.65;2.08;;;;;;;;;;5015799;28;20026;-75
2022/02/26 06:16:21;;;;;;;5.60;2.38;;;;;;;;;;5014496;28;20029;-75
2022/02/26 06:18:47;;;;;;;2.25;1.50;;;;;;;;;;5017542;28;20500;-76
2022/02/26 06:21:13;;;;;;;5.03;2.05;;;;;;;;;;5015117;28;20026;-76
2022/02/26 06:23:39;;;;;;;6.20;1.90;;;;;;;;;;5012564;28;20053;-75
2022/02/26 06:26:05;;;;;;;3.22;1.88;;;;;;;;;;5013184;28;20499;-75
2022/02/26 06:28:32;;;;;;;3.60;2.15;;;;;;;;;;5014387;28;20048;-74
2022/02/26 06:30:58;;;;;;;7.57;1.95;;;;;;;;;;5014203;28;20061;-75
2022/02/26 06:33:24;;;;;;;5.90;1.73;;;;;;;;;;5016734;28;20032;-74
2022/02/26 06:35:50;;;;;;;3.58;2.08;;;;;;;;;;5011727;28;21201;-75
2022/02/26 06:38:16;;;;;;;4.85;2.38;;;;;;;;;;5015037;28;20022;-75
2022/02/26 06:40:42;;;;;;;5.43;1.73;;;;;;;;;;5013328;28;20076;-75
2022/02/26 06:43:08;;;;;;;8.68;2.28;;;;;;;;;;5014712;28;20030;-73
2022/02/26 06:45:34;;;;;;;4.72;2.00;;;;;;;;;;5014052;28;20026;-76
2022/02/26 06:48:00;;;;;;;4.32;2.38;;;;;;;;;;5012846;28;20022;-75
2022/02/26 06:50:26;;;;;;;4.55;2.03;;;;;;;;;;5012640;28;20080;-75
2022/02/26 06:52:52;;;;;;;5.53;2.05;;;;;;;;;;5014734;28;20495;-75
2022/02/26 06:55:18;;;;;;;6.10;2.05;;;;;;;;;;5015515;28;20029;-75
2022/02/26 06:57:44;;;;;;;5.47;1.90;;;;;;;;;;5013727;28;20065;-74
2022/02/26 07:00:11;;;;;;;7.60;2.15;;;;;;;;;;5012433;28;20052;-75
2022/02/26 07:02:37;;;;;;;5.28;2.28;;;;;;;;;;5012745;28;20376;-76
2022/02/26 07:05:03;;;;;;;4.15;1.70;;;;;;;;;;5012882;28;20030;-74
2022/02/26 07:07:30;;;;;;;3.90;2.10;;;;;;;;;;5011805;28;20161;-75
2022/02/26 07:09:56;;;;;;;6.72;1.60;;;;;;;;;;5011260;28;20053;-75
2022/02/26 07:12:22;;;;;;;5.53;2.10;;;;;;;;;;5012644;28;20053;-75
2022/02/26 07:14:48;;;;;;;6.10;2.47;;;;;;;;;;5012753;28;20038;-75
2022/02/26 07:17:15;;;;;;;8.57;2.22;;;;;;;;;;5012232;28;20044;-74
2022/02/26 07:19:41;;;;;;;8.65;2.13;;;;;;;;;;5009676;28;20534;-74
2022/02/26 07:22:08;;;;;;;6.07;2.22;;;;;;;;;;5016338;28;20029;-75
2022/02/26 07:24:34;;;;;;;6.90;2.08;;;;;;;;;;5009091;28;20440;-75
2022/02/26 07:27:00;;;;;;;11.73;3.90;;;;;;;;;;5011107;28;20036;-75
2022/02/26 07:29:27;;;;;;;7.50;2.10;;;;;;;;;;5013617;28;20034;-74
2022/02/26 07:31:53;;;;;;;6.68;2.35;;;;;;;;;;5011738;28;20028;-75
2022/02/26 07:34:19;;;;;;;5.38;1.92;;;;;;;;;;5010877;28;20025;-75
2022/02/26 07:36:45;;;;;;;12.65;3.20;;;;;;;;;;5013044;28;20659;-76
2022/02/26 07:39:11;;;;;;;4.53;1.98;;;;;;;;;;5014836;28;20034;-75
2022/02/26 07:41:37;;;;;;;5.03;2.08;;;;;;;;;;5012326;28;20026;-73
2022/02/26 07:44:03;;;;;;;5.53;1.92;;;;;;;;;;5015314;28;20110;-75
2022/02/26 07:46:30;;;;;;;6.50;2.42;;;;;;;;;;5014087;28;20034;-74
2022/02/26 07:48:56;;;;;;;4.95;2.20;;;;;;;;;;5015158;28;20030;-74
2022/02/26 07:51:22;;;;;;;5.78;2.05;;;;;;;;;;5016047;28;20447;-74
2022/02/26 07:53:48;;;;;;;4.32;2.28;;;;;;;;;;5016457;28;20033;-75
2022/02/26 07:56:14;;;;;;;7.78;2.10;;;;;;;;;;5015057;28;20030;-74
2022/02/26 07:58:40;;;;;;;4.57;2.25;;;;;;;;;;5015651;28;20469;-75
2022/02/26 08:01:06;;;;;;;6.10;2.45;;;;;;;;;;5015668;28;20049;-74
2022/02/26 08:03:32;;;;;;;8.43;1.80;;;;;;;;;;5015726;28;20156;-75
2022/02/26 08:05:58;;;;;;;6.32;2.10;;;;;;;;;;5013568;28;20056;-75
2022/02/26 08:08:24;;;;;;;5.13;2.22;;;;;;;;;;5016888;28;20037;-75
2022/02/26 08:10:50;;;;;;;5.85;2.67;;;;;;;;;;5016908;28;20061;-73
2022/02/26 08:13:17;;;;;;;9.93;2.13;;;;;;;;;;5017061;28;20093;-74
2022/02/26 08:15:43;;;;;;;8.70;3.08;;;;;;;;;;5015810;28;20080;-74
2022/02/26 08:18:10;;;;;;;5.63;2.03;;;;;;;;;;5012760;28;20480;-73
2022/02/26 08:20:36;;;;;;;6.85;2.20;;;;;;;;;;5014058;28;20080;-76
2022/02/26 08:23:03;;;;;;;5.13;1.90;;;;;;;;;;5011386;28;20416;-75
2022/02/26 08:25:29;;;;;;;5.93;1.98;;;;;;;;;;5012883;28;20033;-74
2022/02/26 08:27:55;;;;;;;5.97;2.58;;;;;;;;;;5012992;28;20030;-74
2022/02/26 08:30:21;;;;;;;6.70;2.25;;;;;;;;;;5014298;28;20575;-74
2022/02/26 08:32:48;;;;;;;5.13;2.10;;;;;;;;;;5013753;28;20373;-74
2022/02/26 08:35:15;;;;;;;4.72;1.90;;;;;;;;;;5013725;28;20103;-74
2022/02/26 08:37:42;;;;;;;4.18;1.85;;;;;;;;;;5013874;28;20053;-74
2022/02/26 08:40:10;;;;;;;5.38;2.42;;;;;;;;;;5013710;28;20424;-75
2022/02/26 08:42:36;;;;;;;6.38;2.45;;;;;;;;;;5012690;28;20097;-74
2022/02/26 08:45:04;;;;;;;6.68;2.03;;;;;;;;;;5013412;28;20040;-75
2022/02/26 08:47:30;;;;;;;3.15;1.92;;;;;;;;;;5014450;28;20140;-75
2022/02/26 08:49:57;;;;;;;4.93;2.28;;;;;;;;;;5030021;28;20029;-75
2022/02/26 08:52:23;;;;;;;8.20;2.38;;;;;;;;;;5014777;28;20030;-74
2022/02/26 08:54:50;;;;;;;4.43;2.30;;;;;;;;;;5016481;28;20040;-73
2022/02/26 08:57:16;;;;;;;4.57;1.90;;;;;;;;;;5010031;28;20030;-75
2022/02/26 08:59:42;;;;;;;8.32;2.10;;;;;;;;;;5013053;28;20488;-75
2022/02/26 09:02:08;;;;;;;8.13;2.58;;;;;;;;;;5013750;28;20025;-76
2022/02/26 09:04:35;;;;;;;6.68;2.15;;;;;;;;;;5013533;28;20029;-75
2022/02/26 09:07:02;;;;;;;6.07;3.53;;;;;;;;;;5016629;28;20041;-74
2022/02/26 09:09:28;;;;;;;2.40;2.15;;;;;;;;;;5013587;28;20078;-75
2022/02/26 09:11:54;;;;;;;12.52;2.58;;;;;;;;;;5015113;28;20046;-75
2022/02/26 09:14:20;;;;;;;8.65;2.42;;;;;;;;;;5018420;28;20057;-75
2022/02/26 09:16:46;;;;;;;6.63;2.05;;;;;;;;;;5016953;28;20028;-76
2022/02/26 09:19:13;;;;;;;10.60;3.67;;;;;;;;;;5019492;28;20021;-75
2022/02/26 09:21:39;;;;;;;8.48;2.80;;;;;;;;;;5018325;28;20049;-75
2022/02/26 09:24:05;;;;;;;3.92;2.10;;;;;;;;;;5019549;28;20034;-75
2022/02/26 09:26:31;;;;;;;11.65;2.85;;;;;;;;;;5012444;28;20090;-75
2022/02/26 09:28:57;;;;;;;6.93;2.95;;;;;;;;;;5018081;28;20484;-74
2022/02/26 09:31:23;;;;;;;8.50;2.50;;;;;;;;;;5016139;28;20030;-72
2022/02/26 09:33:50;;;;;;;5.60;2.05;;;;;;;;;;5017994;28;20526;-74
2022/02/26 09:36:16;;;;;;;7.82;2.70;;;;;;;;;;5016311;28;20484;-75
2022/02/26 09:38:43;;;;;;;5.70;2.17;;;;;;;;;;5015864;28;20030;-76
2022/02/26 09:41:09;;;;;;;7.45;2.58;;;;;;;;;;5013784;28;20108;-76
2022/02/26 09:43:35;;;;;;;4.38;2.63;;;;;;;;;;5015765;28;20054;-76
2022/02/26 09:46:03;;;;;;;5.05;2.30;;;;;;;;;;5006179;28;20049;-76
2022/02/26 09:48:29;;;;;;;7.25;2.20;;;;;;;;;;5014083;28;20097;-75
2022/02/26 09:50:55;;;;;;;5.10;2.50;;;;;;;;;;5013538;28;20621;-74
2022/02/26 09:53:22;;;;;;;4.80;2.40;;;;;;;;;;5012780;28;20030;-75
2022/02/26 09:55:50;;;;;;;4.35;2.00;;;;;;;;;;5012243;28;20026;-76
2022/02/26 09:58:16;;;;;;;4.18;2.25;;;;;;;;;;5012860;28;20030;-75
2022/02/26 10:00:43;;;;;;;6.22;2.70;;;;;;;;;;5014998;28;20032;-76
2022/02/26 10:03:25;;;;;;;4.93;2.05;;;;;;;;;;5012245;28;20025;-74
2022/02/26 10:06:04;;;;;;;3.40;2.22;;;;;;;;;;5012259;28;20033;-76
2022/02/26 10:08:42;;;;;;;5.22;2.03;;;;;;;;;;5012733;28;20037;-74
2022/02/26 10:11:22;;;;;;;8.00;2.75;;;;;;;;;;5011149;28;20038;-75
2022/02/26 10:13:49;;;;;;;7.55;1.85;;;;;;;;;;5011286;28;20037;-73
2022/02/26 10:16:15;;;;;;;3.45;2.10;;;;;;;;;;5012270;28;20022;-75
2022/02/26 10:18:51;;;;;;;5.68;2.40;;;;;;;;;;5014579;28;20061;-74
2022/02/26 10:21:31;;;;;;;6.65;2.15;;;;;;;;;;5010119;28;20030;-75
2022/02/26 10:23:57;;;;;;;5.65;2.35;;;;;;;;;;5012906;28;20064;-74
2022/02/26 10:26:29;;;;;;;6.78;2.22;;;;;;;;;;5013136;28;20236;-75
2022/02/26 10:29:12;;;;;;;6.97;2.45;;;;;;;;;;5003440;28;20030;-75
2022/02/26 10:31:46;;;;;;;6.38;3.08;;;;;;;;;;5012206;28;20660;-75
2022/02/26 10:34:24;;;;;;;8.13;2.78;;;;;;;;;;5012335;28;20026;-74
2022/02/26 10:37:05;;;;;;;3.78;2.40;;;;;;;;;;5010670;28;20088;-75
2022/02/26 10:39:36;;;;;;;10.02;3.00;;;;;;;;;;5013547;28;20024;-74
2022/02/26 10:42:03;;;;;;;7.72;2.45;;;;;;;;;;5013016;28;20075;-73
2022/02/26 10:44:29;;;;;;;7.05;2.72;;;;;;;;;;5013912;28;20034;-75
2022/02/26 10:47:04;;;;;;;5.57;2.72;;;;;;;;;;5012067;28;20034;-74
2022/02/26 10:49:31;;;;;;;6.88;2.20;;;;;;;;;;5012358;28;20076;-74
2022/02/26 10:51:57;;;;;;;6.50;2.65;;;;;;;;;;5012570;28;20384;-75
2022/02/26 10:54:24;;;;;;;3.67;2.00;;;;;;;;;;5013308;28;20439;-75
2022/02/26 10:56:51;;;;;;;3.38;1.70;;;;;;;;;;5011574;28;20109;-73
2022/02/26 10:59:32;;;;;;;5.60;2.38;;;;;;;;;;5027652;28;20025;-73
2022/02/26 11:02:08;;;;;;;5.95;2.47;;;;;;;;;;5012748;28;20034;-75
2022/02/26 11:04:36;;;;;;;5.72;2.30;;;;;;;;;;5014642;28;20051;-75
2022/02/26 11:07:03;;;;;;;6.25;2.72;;;;;;;;;;5012778;28;20045;-74
2022/02/26 11:09:29;;;;;;;8.07;5.32;;;;;;;;;;5013344;28;20038;-75
2022/02/26 11:11:59;;;;;;;10.25;5.22;;;;;;;;;;5008505;28;20088;-74
2022/02/26 11:14:26;;;;;;;9.45;3.53;;;;;;;;;;5010728;28;20037;-75
2022/02/26 11:16:55;;;;;;;5.53;2.45;;;;;;;;;;5010189;28;20084;-72
2022/02/26 11:19:23;;;;;;;4.50;2.35;;;;;;;;;;4998244;28;20037;-75
2022/02/26 11:21:50;;;;;;;7.13;2.80;;;;;;;;;;5003342;28;21490;-74
2022/02/26 11:24:17;;;;;;;6.75;3.47;;;;;;;;;;5007137;28;20492;-74
2022/02/26 11:26:43;;;;;;;10.80;6.38;;;;;;;;;;5002143;28;20392;-73
2022/02/26 11:29:13;;;;;;;8.25;4.20;;;;;;;;;;5011017;28;20546;-74
2022/02/26 11:31:47;;;;;;;12.52;4.20;;;;;;;;;;5011218;28;20030;-73
2022/02/26 11:34:14;;;;;;;19.58;9.88;;;;;;;;;;5007761;28;20407;-74
2022/02/26 11:36:51;;;;;;;13.00;4.82;;;;;;;;;;5007957;28;20022;-74
2022/02/26 11:39:23;;;;;;;8.27;3.72;;;;;;;;;;5004020;28;20096;-73
2022/02/26 11:41:50;;;;;;;10.05;3.38;;;;;;;;;;5001181;28;20022;-74
2022/02/26 11:44:36;;;;;;;8.20;3.60;;;;;;;;;;5004384;28;20540;-74
2022/02/26 11:47:12;;;;;;;9.75;3.47;;;;;;;;;;5001069;28;20041;-74
2022/02/26 11:49:38;;;;;;;7.20;3.40;;;;;;;;;;5004768;28;20029;-73
2022/02/26 11:52:04;;;;;;;7.85;3.75;;;;;;;;;;5004700;28;20060;-74
2022/02/26 11:54:30;;;;;;;5.82;3.05;;;;;;;;;;5004474;28;20042;-72
2022/02/26 11:56:57;;;;;;;10.00;2.58;;;;;;;;;;5006196;28;20026;-71
2022/02/26 11:59:39;;;;;;;8.85;2.40;;;;;;;;;;5010837;28;21502;-72
2022/02/26 12:02:07;;;;;;;4.38;2.08;;;;;;;;;;5011429;28;20017;-72
2022/02/26 12:04:53;;;;;;;5.43;2.42;;;;;;;;;;5003764;28;20018;-75
2022/02/26 12:07:31;;;;;;;7.78;2.30;;;;;;;;;;4995551;28;20927;-75
2022/02/26 12:10:08;;;;;;;7.70;2.85;;;;;;;;;;5037376;28;20032;-74
2022/02/26 12:12:35;;;;;;;6.25;2.78;;;;;;;;;;5006598;28;20058;-74
2022/02/26 12:15:01;;;;;;;8.73;3.22;;;;;;;;;;5004690;28;20058;-74
2022/02/26 12:17:29;;;;;;;9.85;3.95;;;;;;;;;;5005644;28;20046;-74
2022/02/26 12:19:55;;;;;;;10.48;4.13;;;;;;;;;;5003717;28;20038;-75
2022/02/26 12:22:31;;;;;;;6.88;3.47;;;;;;;;;;5004545;28;20483;-73
2022/02/26 12:24:58;;;;;;;7.45;2.97;;;;;;;;;;5004434;28;20036;-74
2022/02/26 12:27:33;;;;;;;4.85;2.63;;;;;;;;;;5001731;28;20425;-73
2022/02/26 12:30:07;;;;;;;6.47;2.63;;;;;;;;;;5004016;28;20034;-75
2022/02/26 12:32:47;;;;;;;7.55;3.00;;;;;;;;;;5002397;28;20045;-74
2022/02/26 12:35:13;;;;;;;6.03;2.60;;;;;;;;;;5001944;28;20038;-73
2022/02/26 12:37:44;;;;;;;5.70;2.42;;;;;;;;;;5005423;28;20053;-75
2022/02/26 12:40:28;;;;;;;5.47;2.28;;;;;;;;;;5005246;28;20021;-75
2022/02/26 12:43:01;;;;;;;11.82;3.53;;;;;;;;;;5000855;28;20018;-74
2022/02/26 12:45:27;;;;;;;5.07;2.63;;;;;;;;;;5007441;28;20030;-76
2022/02/26 12:47:53;;;;;;;11.65;4.30;;;;;;;;;;5001264;28;20450;-76
2022/02/26 12:50:19;;;;;;;9.38;3.40;;;;;;;;;;5003272;28;20056;-74
2022/02/26 12:52:46;;;;;;;7.13;3.05;;;;;;;;;;5003083;28;20037;-74
2022/02/26 12:55:16;;;;;;;8.48;2.78;;;;;;;;;;5002118;28;20069;-75
2022/02/26 12:57:44;;;;;;;16.35;3.50;;;;;;;;;;4998186;28;20029;-76
2022/02/26 13:00:11;;;;;;;10.35;2.92;;;;;;;;;;5003100;28;20048;-75
2022/02/26 13:02:51;;;;;;;8.68;2.80;;;;;;;;;;5002659;28;20026;-75
2022/02/26 13:05:17;;;;;;;8.55;3.72;;;;;;;;;;5012978;28;20069;-75
2022/02/26 13:07:44;;;;;;;5.75;3.65;;;;;;;;;;5003260;28;20026;-75
2022/02/26 13:10:10;;;;;;;6.95;3.08;;;;;;;;;;5003148;28;20033;-75
2022/02/26 13:12:38;;;;;;;7.55;2.90;;;;;;;;;;5002542;28;20885;-75
2022/02/26 13:15:09;;;;;;;6.72;2.85;;;;;;;;;;5003514;28;20034;-74
2022/02/26 13:17:37;;;;;;;7.07;2.65;;;;;;;;;;5000718;28;20080;-74
2022/02/26 13:20:25;;;;;;;11.20;5.32;;;;;;;;;;5000341;28;20588;-75
2022/02/26 13:22:53;;;;;;;9.13;3.70;;;;;;;;;;5003011;28;20034;-74
2022/02/26 13:25:20;;;;;;;3.83;2.55;;;;;;;;;;5002987;28;20091;-76
2022/02/26 13:27:48;;;;;;;8.27;3.20;;;;;;;;;;5002431;28;20034;-74
2022/02/26 13:30:15;;;;;;;24.25;3.97;;;;;;;;;;5002812;28;20030;-75
2022/02/26 13:32:42;;;;;;;7.05;3.28;;;;;;;;;;5004122;28;20127;-74
2022/02/26 13:35:08;;;;;;;7.32;3.40;;;;;;;;;;5003502;28;20033;-74
2022/02/26 13:37:36;;;;;;;6.32;3.40;;;;;;;;;;5003505;28;20034;-74
2022/02/26 13:40:03;;;;;;;10.30;3.95;;;;;;;;;;5000961;28;20030;-74
2022/02/26 13:42:30;;;;;;;12.82;3.35;;;;;;;;;;5001629;28;20026;-74
2022/02/26 13:44:56;;;;;;;11.93;3.05;;;;;;;;;;5001454;28;20153;-74
2022/02/26 13:47:23;;;;;;;7.70;3.38;;;;;;;;;;5002909;28;20041;-74
2022/02/26 13:49:52;;;;;;;7.85;3.67;;;;;;;;;;5000926;28;20085;-74
2022/02/26 13:52:18;;;;;;;8.77;4.32;;;;;;;;;;5006586;28;20056;-74
2022/02/26 13:54:45;;;;;;;7.72;3.08;;;;;;;;;;5006613;28;20037;-75
2022/02/26 13:57:13;;;;;;;10.32;2.72;;;;;;;;;;5007031;28;20057;-75
2022/02/26 13:59:39;;;;;;;7.53;2.88;;;;;;;;;;5006893;28;20026;-74
2022/02/26 14:02:05;;;;;;;7.40;3.30;;;;;;;;;;5006997;28;20030;-75
2022/02/26 14:04:39;;;;;;;11.25;3.72;;;;;;;;;;5007480;28;20132;-74
2022/02/26 14:07:05;;;;;;;8.43;2.67;;;;;;;;;;5008046;28;20037;-75
2022/02/26 14:09:32;;;;;;;10.02;3.42;;;;;;;;;;5007476;28;20045;-74
2022/02/26 14:12:00;;;;;;;9.30;4.38;;;;;;;;;;5008239;28;20045;-74
2022/02/26 14:14:28;;;;;;;6.82;3.03;;;;;;;;;;5005571;28;20034;-74
2022/02/26 14:17:04;;;;;;;8.27;3.00;;;;;;;;;;5002455;28;20037;-75
2022/02/26 14:19:31;;;;;;;12.00;2.97;;;;;;;;;;5008026;28;20057;-75
2022/02/26 14:21:57;;;;;;;22.95;3.00;;;;;;;;;;5007224;28;20369;-75
2022/02/26 14:24:30;;;;;;;9.70;2.78;;;;;;;;;;5004878;28;20036;-74
2022/02/26 14:26:57;;;;;;;8.68;3.08;;;;;;;;;;5004738;28;20033;-74
2022/02/26 14:29:27;;;;;;;6.00;2.38;;;;;;;;;;5007397;28;20065;-75
2022/02/26 14:32:04;;;;;;;6.30;3.33;;;;;;;;;;5006294;28;20429;-75
2022/02/26 14:34:30;;;;;;;10.57;4.43;;;;;;;;;;5006748;28;20053;-74
2022/02/26 14:36:57;;;;;;;10.90;3.50;;;;;;;;;;5004286;28;20563;-74
2022/02/26 14:39:24;;;;;;;9.35;2.97;;;;;;;;;;5006709;28;20475;-74
2022/02/26 14:41:51;;;;;;;9.27;3.33;;;;;;;;;;5006971;28;20025;-74
2022/02/26 14:44:19;;;;;;;4.35;2.22;;;;;;;;;;5006161;28;20677;-74
2022/02/26 14:46:45;;;;;;;6.53;2.70;;;;;;;;;;5036758;28;20574;-74